sensor_id;sensor_type;location;lat;lon;timestamp;P1;durP1;ratioP1;P2;durP2;ratioP2
73524;SDS011;61776;56.194;44.160;2022-08-03T00:01:57;18.42;;;9.68;;
73524;SDS011;61776;56.194;44.160;2022-08-03T00:04:24;19.98;;;9.07;;
73524;SDS011;61776;56.194;44.160;2022-08-03T00:06:50;18.23;;;8.73;;
73524;SDS011;61776;56.194;44.160;2022-08-03T00:09:16;15.57;;;8.70;;
73524;SDS011;61776;56.194;44.160;2022-08-03T00:11:42;15.88;;;9.00;;
73524;SDS011;61776;56.194;44.160;2022-08-03T00:14:08;19.60;;;10.00;;
73524;SDS011;61776;56.194;44.160;2022-08-03T00:16:34;17.10;;;10.00;;
73524;SDS011;61776;56.194;44.160;2022-08-03T00:19:00;19.67;;;9.97;;
73524;SDS011;61776;56.194;44.160;2022-08-03T00:21:27;19.40;;;9.70;;
73524;SDS011;61776;56.194;44.160;2022-08-03T00:23:53;18.23;;;9.93;;
73524;SDS011;61776;56.194;44.160;2022-08-03T00:26:19;21.47;;;10.27;;
73524;SDS011;61776;56.194;44.160;2022-08-03T00:28:46;20.58;;;11.13;;
73524;SDS011;61776;56.194;44.160;2022-08-03T00:31:12;19.58;;;10.60;;
73524;SDS011;61776;56.194;44.160;2022-08-03T00:33:38;22.33;;;11.98;;
73524;SDS011;61776;56.194;44.160;2022-08-03T00:36:05;43.97;;;23.73;;
73524;SDS011;61776;56.194;44.160;2022-08-03T00:38:30;67.87;;;35.37;;
73524;SDS011;61776;56.194;44.160;2022-08-03T00:40:56;38.05;;;19.10;;
73524;SDS011;61776;56.194;44.160;2022-08-03T00:43:25;26.02;;;13.23;;
73524;SDS011;61776;56.194;44.160;2022-08-03T00:45:51;23.10;;;12.38;;
73524;SDS011;61776;56.194;44.160;2022-08-03T00:48:18;23.17;;;12.93;;
73524;SDS011;61776;56.194;44.160;2022-08-03T00:50:45;26.98;;;15.18;;
73524;SDS011;61776;56.194;44.160;2022-08-03T00:53:12;23.08;;;14.00;;
73524;SDS011;61776;56.194;44.160;2022-08-03T00:55:39;24.35;;;13.52;;
73524;SDS011;61776;56.194;44.160;2022-08-03T00:58:06;30.98;;;15.65;;
73524;SDS011;61776;56.194;44.160;2022-08-03T01:00:35;29.87;;;16.87;;
73524;SDS011;61776;56.194;44.160;2022-08-03T01:03:08;33.58;;;16.70;;
73524;SDS011;61776;56.194;44.160;2022-08-03T01:05:46;26.88;;;14.18;;
73524;SDS011;61776;56.194;44.160;2022-08-03T01:08:27;29.33;;;14.90;;
73524;SDS011;61776;56.194;44.160;2022-08-03T01:18:35;19.90;;;10.30;;
73524;SDS011;61776;56.194;44.160;2022-08-03T01:25:02;19.85;;;10.52;;
73524;SDS011;61776;56.194;44.160;2022-08-03T01:28:19;24.42;;;12.40;;
73524;SDS011;61776;56.194;44.160;2022-08-03T01:32:47;20.50;;;11.33;;
73524;SDS011;61776;56.194;44.160;2022-08-03T01:36:18;23.55;;;12.57;;
73524;SDS011;61776;56.194;44.160;2022-08-03T01:43:15;25.70;;;13.05;;
73524;SDS011;61776;56.194;44.160;2022-08-03T01:46:44;25.63;;;12.98;;
73524;SDS011;61776;56.194;44.160;2022-08-03T05:22:03;7.10;;;4.60;;
73524;SDS011;61776;56.194;44.160;2022-08-03T05:24:29;6.93;;;4.80;;
73524;SDS011;61776;56.194;44.160;2022-08-03T05:26:55;6.50;;;4.50;;
73524;SDS011;61776;56.194;44.160;2022-08-03T05:29:21;8.90;;;4.93;;
73524;SDS011;61776;56.194;44.160;2022-08-03T05:31:47;6.07;;;4.75;;
73524;SDS011;61776;56.194;44.160;2022-08-03T05:34:13;6.30;;;5.00;;
73524;SDS011;61776;56.194;44.160;2022-08-03T05:36:38;6.80;;;4.10;;
73524;SDS011;61776;56.194;44.160;2022-08-03T05:39:04;6.53;;;4.50;;
73524;SDS011;61776;56.194;44.160;2022-08-03T05:41:30;7.25;;;4.40;;
73524;SDS011;61776;56.194;44.160;2022-08-03T05:43:56;8.02;;;4.95;;
73524;SDS011;61776;56.194;44.160;2022-08-03T05:46:22;7.17;;;4.33;;
73524;SDS011;61776;56.194;44.160;2022-08-03T05:48:49;5.03;;;4.00;;
73524;SDS011;61776;56.194;44.160;2022-08-03T05:51:15;8.70;;;4.20;;
73524;SDS011;61776;56.194;44.160;2022-08-03T05:53:43;8.75;;;4.35;;
73524;SDS011;61776;56.194;44.160;2022-08-03T05:56:09;5.28;;;4.05;;
73524;SDS011;61776;56.194;44.160;2022-08-03T05:58:35;5.77;;;4.00;;
73524;SDS011;61776;56.194;44.160;2022-08-03T06:01:01;9.93;;;4.60;;
73524;SDS011;61776;56.194;44.160;2022-08-03T06:03:27;6.18;;;3.95;;
73524;SDS011;61776;56.194;44.160;2022-08-03T06:05:53;5.83;;;4.13;;
73524;SDS011;61776;56.194;44.160;2022-08-03T06:08:22;5.78;;;4.05;;
73524;SDS011;61776;56.194;44.160;2022-08-03T06:10:48;5.43;;;3.95;;
73524;SDS011;61776;56.194;44.160;2022-08-03T06:13:15;6.97;;;3.72;;
73524;SDS011;61776;56.194;44.160;2022-08-03T06:15:41;4.30;;;3.00;;
73524;SDS011;61776;56.194;44.160;2022-08-03T06:18:16;4.85;;;3.25;;
73524;SDS011;61776;56.194;44.160;2022-08-03T06:20:42;4.75;;;3.30;;
73524;SDS011;61776;56.194;44.160;2022-08-03T06:23:08;7.05;;;3.67;;
73524;SDS011;61776;56.194;44.160;2022-08-03T06:25:34;6.65;;;3.42;;
73524;SDS011;61776;56.194;44.160;2022-08-03T06:28:00;8.80;;;3.57;;
73524;SDS011;61776;56.194;44.160;2022-08-03T06:30:26;5.22;;;3.33;;
73524;SDS011;61776;56.194;44.160;2022-08-03T06:32:52;5.68;;;3.70;;
73524;SDS011;61776;56.194;44.160;2022-08-03T06:35:18;7.60;;;3.58;;
73524;SDS011;61776;56.194;44.160;2022-08-03T06:37:45;6.00;;;3.00;;
73524;SDS011;61776;56.194;44.160;2022-08-03T06:40:13;5.78;;;3.50;;
73524;SDS011;61776;56.194;44.160;2022-08-03T06:42:40;5.85;;;3.30;;
73524;SDS011;61776;56.194;44.160;2022-08-03T06:45:08;5.43;;;3.47;;
73524;SDS011;61776;56.194;44.160;2022-08-03T06:47:35;4.68;;;3.35;;
73524;SDS011;61776;56.194;44.160;2022-08-03T06:50:02;8.23;;;3.47;;
73524;SDS011;61776;56.194;44.160;2022-08-03T06:52:29;5.78;;;3.00;;
73524;SDS011;61776;56.194;44.160;2022-08-03T06:54:55;4.43;;;3.13;;
73524;SDS011;61776;56.194;44.160;2022-08-03T06:57:22;3.85;;;2.47;;
73524;SDS011;61776;56.194;44.160;2022-08-03T06:59:48;4.88;;;3.20;;
73524;SDS011;61776;56.194;44.160;2022-08-03T07:02:14;5.83;;;3.07;;
73524;SDS011;61776;56.194;44.160;2022-08-03T07:04:41;5.20;;;3.10;;
73524;SDS011;61776;56.194;44.160;2022-08-03T07:07:07;4.90;;;2.95;;
73524;SDS011;61776;56.194;44.160;2022-08-03T07:09:33;5.70;;;3.08;;
73524;SDS011;61776;56.194;44.160;2022-08-03T07:11:59;5.53;;;3.13;;
73524;SDS011;61776;56.194;44.160;2022-08-03T07:14:26;5.40;;;3.50;;
73524;SDS011;61776;56.194;44.160;2022-08-03T07:16:52;4.20;;;3.53;;
73524;SDS011;61776;56.194;44.160;2022-08-03T07:19:18;5.13;;;2.95;;
73524;SDS011;61776;56.194;44.160;2022-08-03T07:21:44;8.00;;;3.60;;
73524;SDS011;61776;56.194;44.160;2022-08-03T07:24:10;4.93;;;3.10;;
73524;SDS011;61776;56.194;44.160;2022-08-03T07:26:36;4.00;;;3.22;;
73524;SDS011;61776;56.194;44.160;2022-08-03T07:29:02;4.18;;;3.40;;
73524;SDS011;61776;56.194;44.160;2022-08-03T07:31:28;3.37;;;2.50;;
73524;SDS011;61776;56.194;44.160;2022-08-03T07:33:54;5.00;;;2.88;;
73524;SDS011;61776;56.194;44.160;2022-08-03T07:36:20;4.70;;;2.80;;
73524;SDS011;61776;56.194;44.160;2022-08-03T07:38:46;3.88;;;3.17;;
73524;SDS011;61776;56.194;44.160;2022-08-03T07:41:12;5.67;;;3.27;;
73524;SDS011;61776;56.194;44.160;2022-08-03T07:43:38;10.20;;;3.28;;
73524;SDS011;61776;56.194;44.160;2022-08-03T07:46:04;4.40;;;2.90;;
73524;SDS011;61776;56.194;44.160;2022-08-03T07:48:38;3.83;;;2.75;;
73524;SDS011;61776;56.194;44.160;2022-08-03T07:51:04;4.97;;;2.80;;
73524;SDS011;61776;56.194;44.160;2022-08-03T07:53:30;3.53;;;2.20;;
73524;SDS011;61776;56.194;44.160;2022-08-03T07:55:56;4.15;;;3.15;;
73524;SDS011;61776;56.194;44.160;2022-08-03T07:58:22;3.70;;;2.78;;
73524;SDS011;61776;56.194;44.160;2022-08-03T08:00:48;5.57;;;2.38;;
73524;SDS011;61776;56.194;44.160;2022-08-03T08:03:17;3.07;;;2.27;;
73524;SDS011;61776;56.194;44.160;2022-08-03T08:05:47;2.80;;;2.20;;
73524;SDS011;61776;56.194;44.160;2022-08-03T08:11:48;4.10;;;2.20;;
73524;SDS011;61776;56.194;44.160;2022-08-03T08:14:14;4.63;;;2.53;;
73524;SDS011;61776;56.194;44.160;2022-08-03T08:16:40;4.80;;;3.53;;
73524;SDS011;61776;56.194;44.160;2022-08-03T08:19:05;4.00;;;3.13;;
73524;SDS011;61776;56.194;44.160;2022-08-03T08:21:31;4.55;;;3.10;;
73524;SDS011;61776;56.194;44.160;2022-08-03T08:23:57;9.53;;;3.73;;
73524;SDS011;61776;56.194;44.160;2022-08-03T08:26:49;6.63;;;3.58;;
73524;SDS011;61776;56.194;44.160;2022-08-03T08:29:15;5.63;;;3.75;;
73524;SDS011;61776;56.194;44.160;2022-08-03T08:31:41;5.20;;;3.53;;
73524;SDS011;61776;56.194;44.160;2022-08-03T08:34:07;4.50;;;3.53;;
73524;SDS011;61776;56.194;44.160;2022-08-03T08:36:33;6.22;;;3.40;;
73524;SDS011;61776;56.194;44.160;2022-08-03T08:39:00;3.53;;;3.00;;
73524;SDS011;61776;56.194;44.160;2022-08-03T08:41:26;5.60;;;3.72;;
73524;SDS011;61776;56.194;44.160;2022-08-03T08:43:53;4.00;;;3.20;;
73524;SDS011;61776;56.194;44.160;2022-08-03T08:46:19;4.22;;;3.55;;
73524;SDS011;61776;56.194;44.160;2022-08-03T08:48:46;4.03;;;3.60;;
73524;SDS011;61776;56.194;44.160;2022-08-03T08:51:13;3.80;;;3.10;;
73524;SDS011;61776;56.194;44.160;2022-08-03T08:53:43;3.97;;;3.47;;
73524;SDS011;61776;56.194;44.160;2022-08-03T08:56:13;5.13;;;3.90;;
73524;SDS011;61776;56.194;44.160;2022-08-03T08:58:41;4.47;;;3.80;;
73524;SDS011;61776;56.194;44.160;2022-08-03T09:01:19;7.30;;;3.35;;
73524;SDS011;61776;56.194;44.160;2022-08-03T09:04:25;4.72;;;3.25;;
73524;SDS011;61776;56.194;44.160;2022-08-03T09:07:54;3.95;;;3.28;;
73524;SDS011;61776;56.194;44.160;2022-08-03T09:11:00;4.23;;;3.80;;
73524;SDS011;61776;56.194;44.160;2022-08-03T09:17:59;5.32;;;3.83;;
73524;SDS011;61776;56.194;44.160;2022-08-03T12:23:38;7.95;;;5.00;;
73524;SDS011;61776;56.194;44.160;2022-08-03T12:26:30;8.03;;;5.60;;
73524;SDS011;61776;56.194;44.160;2022-08-03T12:29:15;7.47;;;5.20;;
73524;SDS011;61776;56.194;44.160;2022-08-03T12:31:44;8.90;;;4.80;;
73524;SDS011;61776;56.194;44.160;2022-08-03T12:34:11;7.07;;;5.47;;
73524;SDS011;61776;56.194;44.160;2022-08-03T12:36:48;7.18;;;4.97;;
73524;SDS011;61776;56.194;44.160;2022-08-03T12:39:16;5.90;;;5.30;;
73524;SDS011;61776;56.194;44.160;2022-08-03T12:41:42;6.80;;;5.68;;
73524;SDS011;61776;56.194;44.160;2022-08-03T12:44:08;7.13;;;4.88;;
73524;SDS011;61776;56.194;44.160;2022-08-03T12:46:35;7.55;;;5.10;;
73524;SDS011;61776;56.194;44.160;2022-08-03T12:49:03;7.22;;;5.47;;
73524;SDS011;61776;56.194;44.160;2022-08-03T12:51:32;7.30;;;5.70;;
73524;SDS011;61776;56.194;44.160;2022-08-03T12:54:33;7.93;;;6.50;;
73524;SDS011;61776;56.194;44.160;2022-08-03T12:57:07;8.60;;;5.82;;
73524;SDS011;61776;56.194;44.160;2022-08-03T12:59:36;8.75;;;5.47;;
73524;SDS011;61776;56.194;44.160;2022-08-03T13:02:13;7.72;;;6.15;;
73524;SDS011;61776;56.194;44.160;2022-08-03T13:04:41;7.43;;;6.07;;
73524;SDS011;61776;56.194;44.160;2022-08-03T13:07:09;7.53;;;5.88;;
73524;SDS011;61776;56.194;44.160;2022-08-03T13:12:12;8.95;;;6.38;;
73524;SDS011;61776;56.194;44.160;2022-08-03T13:14:40;8.60;;;5.68;;
73524;SDS011;61776;56.194;44.160;2022-08-03T13:17:07;10.93;;;5.73;;
73524;SDS011;61776;56.194;44.160;2022-08-03T13:19:33;9.95;;;6.03;;
73524;SDS011;61776;56.194;44.160;2022-08-03T13:22:00;8.23;;;5.97;;
73524;SDS011;61776;56.194;44.160;2022-08-03T13:24:35;8.13;;;5.97;;
73524;SDS011;61776;56.194;44.160;2022-08-03T13:27:01;8.33;;;5.83;;
73524;SDS011;61776;56.194;44.160;2022-08-03T13:29:27;7.10;;;6.15;;
73524;SDS011;61776;56.194;44.160;2022-08-03T13:31:52;13.15;;;6.57;;
73524;SDS011;61776;56.194;44.160;2022-08-03T13:34:18;6.30;;;5.70;;
73524;SDS011;61776;56.194;44.160;2022-08-03T13:36:44;8.50;;;5.15;;
73524;SDS011;61776;56.194;44.160;2022-08-03T13:39:10;6.30;;;5.22;;
73524;SDS011;61776;56.194;44.160;2022-08-03T13:41:36;8.80;;;5.50;;
73524;SDS011;61776;56.194;44.160;2022-08-03T13:44:02;7.63;;;6.10;;
73524;SDS011;61776;56.194;44.160;2022-08-03T13:46:28;11.50;;;5.85;;
73524;SDS011;61776;56.194;44.160;2022-08-03T13:48:54;8.52;;;6.00;;
73524;SDS011;61776;56.194;44.160;2022-08-03T13:51:19;6.97;;;5.83;;
73524;SDS011;61776;56.194;44.160;2022-08-03T13:53:45;8.23;;;5.37;;
73524;SDS011;61776;56.194;44.160;2022-08-03T13:56:11;9.88;;;6.38;;
73524;SDS011;61776;56.194;44.160;2022-08-03T13:58:37;7.55;;;6.60;;
73524;SDS011;61776;56.194;44.160;2022-08-03T14:01:03;8.27;;;6.47;;
73524;SDS011;61776;56.194;44.160;2022-08-03T14:03:29;7.22;;;6.10;;
73524;SDS011;61776;56.194;44.160;2022-08-03T14:06:09;9.48;;;6.18;;
73524;SDS011;61776;56.194;44.160;2022-08-03T14:08:34;7.57;;;6.87;;
73524;SDS011;61776;56.194;44.160;2022-08-03T14:11:00;8.20;;;6.75;;
73524;SDS011;61776;56.194;44.160;2022-08-03T14:13:28;7.55;;;6.85;;
73524;SDS011;61776;56.194;44.160;2022-08-03T14:15:53;12.27;;;6.03;;
73524;SDS011;61776;56.194;44.160;2022-08-03T14:18:20;15.18;;;7.45;;
73524;SDS011;61776;56.194;44.160;2022-08-03T14:20:46;18.73;;;6.87;;
73524;SDS011;61776;56.194;44.160;2022-08-03T14:23:12;7.75;;;6.95;;
73524;SDS011;61776;56.194;44.160;2022-08-03T14:25:39;9.23;;;7.47;;
73524;SDS011;61776;56.194;44.160;2022-08-03T14:28:07;8.70;;;7.22;;
73524;SDS011;61776;56.194;44.160;2022-08-03T14:30:33;10.90;;;7.53;;
73524;SDS011;61776;56.194;44.160;2022-08-03T14:33:00;8.63;;;6.95;;
73524;SDS011;61776;56.194;44.160;2022-08-03T14:35:25;7.90;;;6.82;;
73524;SDS011;61776;56.194;44.160;2022-08-03T14:37:51;11.55;;;7.20;;
73524;SDS011;61776;56.194;44.160;2022-08-03T14:40:18;9.13;;;7.13;;
73524;SDS011;61776;56.194;44.160;2022-08-03T14:42:44;8.93;;;6.63;;
73524;SDS011;61776;56.194;44.160;2022-08-03T14:45:10;10.65;;;7.05;;
73524;SDS011;61776;56.194;44.160;2022-08-03T14:47:38;9.48;;;7.47;;
73524;SDS011;61776;56.194;44.160;2022-08-03T14:50:04;7.88;;;7.07;;
73524;SDS011;61776;56.194;44.160;2022-08-03T14:52:32;9.70;;;6.70;;
73524;SDS011;61776;56.194;44.160;2022-08-03T14:54:58;7.95;;;6.85;;
73524;SDS011;61776;56.194;44.160;2022-08-03T14:57:24;11.55;;;8.00;;
73524;SDS011;61776;56.194;44.160;2022-08-03T14:59:50;7.88;;;6.88;;
73524;SDS011;61776;56.194;44.160;2022-08-03T15:02:17;7.63;;;6.90;;
73524;SDS011;61776;56.194;44.160;2022-08-03T15:04:43;7.50;;;6.60;;
73524;SDS011;61776;56.194;44.160;2022-08-03T15:07:09;10.40;;;7.03;;
73524;SDS011;61776;56.194;44.160;2022-08-03T15:09:35;11.50;;;6.45;;
73524;SDS011;61776;56.194;44.160;2022-08-03T15:12:03;12.82;;;7.43;;
73524;SDS011;61776;56.194;44.160;2022-08-03T15:14:32;10.27;;;7.57;;
73524;SDS011;61776;56.194;44.160;2022-08-03T15:16:58;10.43;;;6.93;;
73524;SDS011;61776;56.194;44.160;2022-08-03T15:19:24;8.82;;;6.93;;
73524;SDS011;61776;56.194;44.160;2022-08-03T15:30:55;10.83;;;6.93;;
73524;SDS011;61776;56.194;44.160;2022-08-03T15:33:21;11.15;;;7.00;;
73524;SDS011;61776;56.194;44.160;2022-08-03T15:35:47;12.70;;;7.80;;
73524;SDS011;61776;56.194;44.160;2022-08-03T15:38:47;11.93;;;7.43;;
73524;SDS011;61776;56.194;44.160;2022-08-03T15:41:13;12.90;;;7.50;;
73524;SDS011;61776;56.194;44.160;2022-08-03T15:43:40;11.25;;;7.13;;
73524;SDS011;61776;56.194;44.160;2022-08-03T15:46:06;10.88;;;7.22;;
73524;SDS011;61776;56.194;44.160;2022-08-03T15:48:32;12.90;;;7.55;;
73524;SDS011;61776;56.194;44.160;2022-08-03T15:50:58;10.45;;;7.00;;
73524;SDS011;61776;56.194;44.160;2022-08-03T15:53:24;14.10;;;6.90;;
73524;SDS011;61776;56.194;44.160;2022-08-03T15:55:50;10.38;;;7.03;;
73524;SDS011;61776;56.194;44.160;2022-08-03T15:58:16;8.60;;;7.70;;
73524;SDS011;61776;56.194;44.160;2022-08-03T16:00:42;10.60;;;7.17;;
73524;SDS011;61776;56.194;44.160;2022-08-03T16:03:08;9.30;;;7.47;;
73524;SDS011;61776;56.194;44.160;2022-08-03T16:05:34;8.73;;;7.80;;
73524;SDS011;61776;56.194;44.160;2022-08-03T16:08:01;9.23;;;6.90;;
73524;SDS011;61776;56.194;44.160;2022-08-03T16:10:26;8.40;;;7.10;;
73524;SDS011;61776;56.194;44.160;2022-08-03T16:12:55;11.57;;;7.68;;
73524;SDS011;61776;56.194;44.160;2022-08-03T16:15:23;10.80;;;7.10;;
73524;SDS011;61776;56.194;44.160;2022-08-03T16:17:49;10.35;;;7.18;;
73524;SDS011;61776;56.194;44.160;2022-08-03T16:20:14;14.53;;;7.97;;
73524;SDS011;61776;56.194;44.160;2022-08-03T16:23:20;24.67;;;8.47;;
73524;SDS011;61776;56.194;44.160;2022-08-03T16:25:46;11.98;;;8.27;;
73524;SDS011;61776;56.194;44.160;2022-08-03T16:28:12;12.55;;;8.18;;
73524;SDS011;61776;56.194;44.160;2022-08-03T16:30:38;11.82;;;7.15;;
73524;SDS011;61776;56.194;44.160;2022-08-03T16:33:05;11.38;;;7.30;;
73524;SDS011;61776;56.194;44.160;2022-08-03T16:35:31;13.37;;;7.50;;
73524;SDS011;61776;56.194;44.160;2022-08-03T16:37:57;17.00;;;7.75;;
73524;SDS011;61776;56.194;44.160;2022-08-03T16:40:23;13.43;;;7.53;;
73524;SDS011;61776;56.194;44.160;2022-08-03T16:42:50;12.82;;;7.95;;
73524;SDS011;61776;56.194;44.160;2022-08-03T16:45:16;11.83;;;7.37;;
73524;SDS011;61776;56.194;44.160;2022-08-03T16:47:42;13.00;;;8.40;;
73524;SDS011;61776;56.194;44.160;2022-08-03T16:50:08;12.23;;;8.98;;
73524;SDS011;61776;56.194;44.160;2022-08-03T16:52:34;24.45;;;11.13;;
73524;SDS011;61776;56.194;44.160;2022-08-03T16:55:01;17.67;;;9.50;;
73524;SDS011;61776;56.194;44.160;2022-08-03T16:57:28;15.75;;;9.88;;
73524;SDS011;61776;56.194;44.160;2022-08-03T16:59:54;16.45;;;9.10;;
73524;SDS011;61776;56.194;44.160;2022-08-03T17:02:23;12.05;;;9.10;;
73524;SDS011;61776;56.194;44.160;2022-08-03T17:04:51;15.47;;;8.67;;
73524;SDS011;61776;56.194;44.160;2022-08-03T17:07:17;18.60;;;9.45;;
73524;SDS011;61776;56.194;44.160;2022-08-03T17:09:44;15.20;;;8.65;;
73524;SDS011;61776;56.194;44.160;2022-08-03T17:12:12;12.23;;;9.00;;
73524;SDS011;61776;56.194;44.160;2022-08-03T17:14:38;16.48;;;9.90;;
73524;SDS011;61776;56.194;44.160;2022-08-03T17:17:07;17.70;;;11.60;;
73524;SDS011;61776;56.194;44.160;2022-08-03T17:19:40;24.60;;;15.93;;
73524;SDS011;61776;56.194;44.160;2022-08-03T17:24:39;28.65;;;18.63;;
73524;SDS011;61776;56.194;44.160;2022-08-03T17:27:13;27.88;;;18.95;;
73524;SDS011;61776;56.194;44.160;2022-08-03T17:29:44;27.57;;;17.90;;
73524;SDS011;61776;56.194;44.160;2022-08-03T17:32:16;25.05;;;17.77;;
73524;SDS011;61776;56.194;44.160;2022-08-03T17:34:44;24.60;;;17.80;;
73524;SDS011;61776;56.194;44.160;2022-08-03T17:37:14;28.65;;;16.80;;
73524;SDS011;61776;56.194;44.160;2022-08-03T17:39:48;25.80;;;16.60;;
73524;SDS011;61776;56.194;44.160;2022-08-03T17:42:17;28.93;;;15.13;;
73524;SDS011;61776;56.194;44.160;2022-08-03T17:44:44;32.70;;;16.67;;
73524;SDS011;61776;56.194;44.160;2022-08-03T17:47:11;31.98;;;16.95;;
73524;SDS011;61776;56.194;44.160;2022-08-03T17:49:37;22.58;;;14.52;;
73524;SDS011;61776;56.194;44.160;2022-08-03T17:52:05;24.83;;;15.02;;
73524;SDS011;61776;56.194;44.160;2022-08-03T17:57:50;27.52;;;15.95;;
73524;SDS011;61776;56.194;44.160;2022-08-03T18:00:23;23.98;;;14.60;;
73524;SDS011;61776;56.194;44.160;2022-08-03T18:03:20;24.45;;;15.38;;
73524;SDS011;61776;56.194;44.160;2022-08-03T18:05:53;24.02;;;15.05;;
73524;SDS011;61776;56.194;44.160;2022-08-03T18:08:34;31.63;;;15.70;;
73524;SDS011;61776;56.194;44.160;2022-08-03T18:11:09;33.90;;;15.45;;
73524;SDS011;61776;56.194;44.160;2022-08-03T18:16:27;36.03;;;14.40;;
73524;SDS011;61776;56.194;44.160;2022-08-03T18:19:35;33.22;;;14.35;;
73524;SDS011;61776;56.194;44.160;2022-08-03T18:22:01;33.83;;;13.80;;
73524;SDS011;61776;56.194;44.160;2022-08-03T18:24:28;30.30;;;14.10;;
73524;SDS011;61776;56.194;44.160;2022-08-03T18:26:55;24.23;;;14.30;;
73524;SDS011;61776;56.194;44.160;2022-08-03T18:29:23;31.17;;;14.55;;
73524;SDS011;61776;56.194;44.160;2022-08-03T18:31:50;26.25;;;15.40;;
73524;SDS011;61776;56.194;44.160;2022-08-03T18:34:23;37.60;;;16.90;;
73524;SDS011;61776;56.194;44.160;2022-08-03T18:36:50;30.13;;;15.45;;
73524;SDS011;61776;56.194;44.160;2022-08-03T18:39:17;40.38;;;16.08;;
73524;SDS011;61776;56.194;44.160;2022-08-03T18:42:47;31.42;;;18.70;;
73524;SDS011;61776;56.194;44.160;2022-08-03T18:45:13;38.97;;;19.53;;
73524;SDS011;61776;56.194;44.160;2022-08-03T18:50:34;47.30;;;22.77;;
73524;SDS011;61776;56.194;44.160;2022-08-03T18:56:45;43.80;;;21.98;;
73524;SDS011;61776;56.194;44.160;2022-08-03T18:59:29;43.73;;;22.20;;
73524;SDS011;61776;56.194;44.160;2022-08-03T19:02:04;43.90;;;21.58;;
73524;SDS011;61776;56.194;44.160;2022-08-03T19:04:37;45.00;;;21.17;;
73524;SDS011;61776;56.194;44.160;2022-08-03T19:07:04;42.00;;;20.17;;
73524;SDS011;61776;56.194;44.160;2022-08-03T19:12:17;36.43;;;19.47;;
73524;SDS011;61776;56.194;44.160;2022-08-03T19:14:57;39.15;;;20.17;;
73524;SDS011;61776;56.194;44.160;2022-08-03T19:17:28;34.10;;;19.00;;
73524;SDS011;61776;56.194;44.160;2022-08-03T19:19:57;34.75;;;18.20;;
73524;SDS011;61776;56.194;44.160;2022-08-03T19:22:24;41.83;;;18.33;;
73524;SDS011;61776;56.194;44.160;2022-08-03T19:24:51;36.37;;;18.33;;
73524;SDS011;61776;56.194;44.160;2022-08-03T19:27:20;34.60;;;17.35;;
73524;SDS011;61776;56.194;44.160;2022-08-03T19:29:47;32.70;;;17.13;;
73524;SDS011;61776;56.194;44.160;2022-08-03T19:32:14;34.63;;;17.92;;
73524;SDS011;61776;56.194;44.160;2022-08-03T19:34:41;32.10;;;17.30;;
73524;SDS011;61776;56.194;44.160;2022-08-03T19:37:09;33.70;;;16.93;;
73524;SDS011;61776;56.194;44.160;2022-08-03T19:39:41;38.40;;;16.38;;
73524;SDS011;61776;56.194;44.160;2022-08-03T19:42:11;30.25;;;15.45;;
73524;SDS011;61776;56.194;44.160;2022-08-03T19:44:46;28.30;;;16.33;;
73524;SDS011;61776;56.194;44.160;2022-08-03T19:47:19;33.70;;;15.07;;
73524;SDS011;61776;56.194;44.160;2022-08-03T19:49:52;28.97;;;15.03;;
73524;SDS011;61776;56.194;44.160;2022-08-03T19:52:23;29.98;;;15.35;;
73524;SDS011;61776;56.194;44.160;2022-08-03T19:54:51;29.13;;;15.18;;
73524;SDS011;61776;56.194;44.160;2022-08-03T19:57:25;28.05;;;15.23;;
73524;SDS011;61776;56.194;44.160;2022-08-03T19:59:53;31.40;;;14.98;;
73524;SDS011;61776;56.194;44.160;2022-08-03T20:02:21;27.93;;;14.60;;
73524;SDS011;61776;56.194;44.160;2022-08-03T20:04:48;27.58;;;14.70;;
73524;SDS011;61776;56.194;44.160;2022-08-03T20:07:14;27.52;;;14.90;;
73524;SDS011;61776;56.194;44.160;2022-08-03T20:09:40;28.40;;;15.50;;
73524;SDS011;61776;56.194;44.160;2022-08-03T20:12:08;28.58;;;15.60;;
73524;SDS011;61776;56.194;44.160;2022-08-03T20:14:37;23.00;;;14.73;;
73524;SDS011;61776;56.194;44.160;2022-08-03T20:17:03;34.47;;;15.85;;
73524;SDS011;61776;56.194;44.160;2022-08-03T20:19:30;29.48;;;15.20;;
73524;SDS011;61776;56.194;44.160;2022-08-03T20:21:57;27.80;;;15.20;;
73524;SDS011;61776;56.194;44.160;2022-08-03T20:24:27;32.08;;;15.75;;
73524;SDS011;61776;56.194;44.160;2022-08-03T20:26:59;30.33;;;16.10;;
73524;SDS011;61776;56.194;44.160;2022-08-03T20:29:29;36.63;;;16.50;;
73524;SDS011;61776;56.194;44.160;2022-08-03T20:31:58;37.83;;;17.23;;
73524;SDS011;61776;56.194;44.160;2022-08-03T20:34:25;35.83;;;18.58;;
73524;SDS011;61776;56.194;44.160;2022-08-03T20:36:51;40.90;;;19.30;;
73524;SDS011;61776;56.194;44.160;2022-08-03T20:39:31;38.93;;;19.27;;
73524;SDS011;61776;56.194;44.160;2022-08-03T20:42:42;44.25;;;19.13;;
73524;SDS011;61776;56.194;44.160;2022-08-03T20:45:08;48.75;;;20.00;;
73524;SDS011;61776;56.194;44.160;2022-08-03T20:47:35;50.45;;;20.88;;
73524;SDS011;61776;56.194;44.160;2022-08-03T20:50:03;40.40;;;20.30;;
73524;SDS011;61776;56.194;44.160;2022-08-03T20:52:30;45.95;;;21.15;;
73524;SDS011;61776;56.194;44.160;2022-08-03T20:54:57;43.83;;;22.30;;
73524;SDS011;61776;56.194;44.160;2022-08-03T20:57:24;39.70;;;19.65;;
73524;SDS011;61776;56.194;44.160;2022-08-03T20:59:51;41.60;;;20.88;;
73524;SDS011;61776;56.194;44.160;2022-08-03T21:02:18;45.93;;;21.23;;
73524;SDS011;61776;56.194;44.160;2022-08-03T21:04:45;37.28;;;19.92;;
73524;SDS011;61776;56.194;44.160;2022-08-03T21:07:15;39.25;;;19.15;;
73524;SDS011;61776;56.194;44.160;2022-08-03T21:09:50;44.95;;;23.08;;
73524;SDS011;61776;56.194;44.160;2022-08-03T21:12:22;43.80;;;22.27;;
73524;SDS011;61776;56.194;44.160;2022-08-03T21:15:01;40.13;;;20.17;;
73524;SDS011;61776;56.194;44.160;2022-08-03T21:17:33;50.03;;;24.38;;
73524;SDS011;61776;56.194;44.160;2022-08-03T21:20:00;46.28;;;24.67;;
73524;SDS011;61776;56.194;44.160;2022-08-03T21:22:30;41.42;;;24.23;;
73524;SDS011;61776;56.194;44.160;2022-08-03T21:25:01;41.70;;;21.55;;
73524;SDS011;61776;56.194;44.160;2022-08-03T21:27:29;35.47;;;19.80;;
73524;SDS011;61776;56.194;44.160;2022-08-03T21:30:04;36.00;;;19.55;;
73524;SDS011;61776;56.194;44.160;2022-08-03T21:32:33;40.58;;;18.88;;
73524;SDS011;61776;56.194;44.160;2022-08-03T21:34:59;35.95;;;20.58;;
73524;SDS011;61776;56.194;44.160;2022-08-03T21:37:26;32.42;;;18.90;;
73524;SDS011;61776;56.194;44.160;2022-08-03T21:39:53;31.97;;;19.17;;
73524;SDS011;61776;56.194;44.160;2022-08-03T21:42:21;32.88;;;17.92;;
73524;SDS011;61776;56.194;44.160;2022-08-03T21:44:50;29.92;;;17.77;;
73524;SDS011;61776;56.194;44.160;2022-08-03T21:47:17;31.90;;;17.83;;
73524;SDS011;61776;56.194;44.160;2022-08-03T21:49:46;35.85;;;19.13;;
73524;SDS011;61776;56.194;44.160;2022-08-03T21:52:14;32.90;;;18.60;;
73524;SDS011;61776;56.194;44.160;2022-08-03T21:54:42;30.05;;;18.60;;
73524;SDS011;61776;56.194;44.160;2022-08-03T21:57:16;30.10;;;18.25;;
73524;SDS011;61776;56.194;44.160;2022-08-03T21:59:46;32.40;;;18.38;;
73524;SDS011;61776;56.194;44.160;2022-08-03T22:02:28;29.90;;;17.60;;
73524;SDS011;61776;56.194;44.160;2022-08-03T22:04:55;28.63;;;17.10;;
73524;SDS011;61776;56.194;44.160;2022-08-03T22:07:25;31.90;;;17.38;;